METAR LOCAUX

2021/10/21 11:00 LFST 211100Z AUTO 26018KT 9999 FEW046 SCT054 16/05 Q1013 TEMPO FEW030TCU BECMG 24015G25KT
2021/10/21 10:50 EDSB 211050Z 24012KT 200V280 9999 BKN039 14/06 Q1012
2021/10/21 11:00 LFGA 211100Z AUTO 24014KT 210V270 9999 SCT050 BKN060 15/04 Q1014
www.noaa.gov

Ne pas utiliser pour préparer ou effectuer un vol: Utilisez la documentation officielle disponible sur aviation.meteo.fr (Aéroweb)


"Le soleil du matin ne dure pas forcément toute la journée."

Animation satellite IR

Meteociel.fr

"Derrière chaque nuage se cache le ciel bleu."

Radar pluie

Infoclimat.fr

"Si tu veux l’arc-en-ciel, tu dois supporter la pluie."
Dolly Parton

Nébulosité (octas)

Meteociel.fr

"Le soleil est souvent obscurci par les nuages et la raison par les passions."
Démophile

Impacts de foudre

www.meteo60.fr

"Celui que frappe la foudre n'entend pas le tonnerre."

Vigilance météo

vigilance-meteo.fr

"Tout nuage n'enfante pas une tempête."
William Shakespeare

TAF locaux

2021/10/21 06:21 TAF LFST 210500Z 2106/2206 24015G25KT 9999 BKN040 TEMPO 2106/2108 24025G42KT PROB40 TEMPO 2106/2112 -SHRA FEW030TCU BECMG 2117/2119 32008KT TEMPO 2119/2121 32015G30KT 4000 SHRA FEW030CB
2021/10/21 06:30 TAF EDSB 210500Z 2106/2206 22015G35KT 9999 SCT035 TEMPO 2106/2113 23020G45KT SHRA BKN030CB TEMPO 2116/2121 SHRA BKN030CB BECMG 2117/2120 22007KT BECMG 2121/2124 VRB03KT
www.noaa.gov

Ne pas utiliser pour préparer ou effectuer un vol: Utilisez la documentation officielle disponible sur aviation.meteo.fr (Aéroweb)


"Les jours où le ciel est gris, le soleil n'a pas disparu à tout jamais."
Arnaud Desjardins

Prévisions 7 jours


Meteoblue.com

"Quand les crapauds chantent, le beau temps s'avance !"